sensor_id;sensor_type;location;lat;lon;timestamp;P1;durP1;ratioP1;P2;durP2;ratioP2
13040;SDS011;6587;42.728;23.288;2024-01-25T00:00:00;34.93;;;18.20;;
13040;SDS011;6587;42.728;23.288;2024-01-25T00:02:27;35.47;;;18.30;;
13040;SDS011;6587;42.728;23.288;2024-01-25T00:04:54;29.57;;;16.20;;
13040;SDS011;6587;42.728;23.288;2024-01-25T00:07:22;29.23;;;16.40;;
13040;SDS011;6587;42.728;23.288;2024-01-25T00:09:49;28.07;;;15.97;;
13040;SDS011;6587;42.728;23.288;2024-01-25T00:12:16;35.53;;;18.60;;
13040;SDS011;6587;42.728;23.288;2024-01-25T00:14:43;60.20;;;31.87;;
13040;SDS011;6587;42.728;23.288;2024-01-25T00:17:09;43.30;;;23.27;;
13040;SDS011;6587;42.728;23.288;2024-01-25T00:19:36;33.23;;;18.30;;
13040;SDS011;6587;42.728;23.288;2024-01-25T00:22:03;34.13;;;17.60;;
13040;SDS011;6587;42.728;23.288;2024-01-25T00:24:32;23.67;;;14.73;;
13040;SDS011;6587;42.728;23.288;2024-01-25T00:26:59;21.93;;;12.77;;
13040;SDS011;6587;42.728;23.288;2024-01-25T00:29:26;20.83;;;13.50;;
13040;SDS011;6587;42.728;23.288;2024-01-25T00:31:53;27.30;;;15.87;;
13040;SDS011;6587;42.728;23.288;2024-01-25T00:34:20;35.07;;;18.13;;
13040;SDS011;6587;42.728;23.288;2024-01-25T00:36:47;32.60;;;15.93;;
13040;SDS011;6587;42.728;23.288;2024-01-25T00:39:15;26.73;;;15.20;;
13040;SDS011;6587;42.728;23.288;2024-01-25T00:41:44;30.63;;;15.90;;
13040;SDS011;6587;42.728;23.288;2024-01-25T00:44:17;25.23;;;14.20;;
13040;SDS011;6587;42.728;23.288;2024-01-25T00:46:44;24.53;;;14.13;;
13040;SDS011;6587;42.728;23.288;2024-01-25T00:49:13;32.77;;;16.03;;
13040;SDS011;6587;42.728;23.288;2024-01-25T00:51:40;33.03;;;17.67;;
13040;SDS011;6587;42.728;23.288;2024-01-25T00:54:13;31.90;;;17.43;;
13040;SDS011;6587;42.728;23.288;2024-01-25T00:56:41;23.20;;;13.47;;
13040;SDS011;6587;42.728;23.288;2024-01-25T00:59:10;16.83;;;9.63;;
13040;SDS011;6587;42.728;23.288;2024-01-25T01:01:37;13.53;;;8.40;;
13040;SDS011;6587;42.728;23.288;2024-01-25T01:04:05;14.07;;;8.20;;
13040;SDS011;6587;42.728;23.288;2024-01-25T01:06:33;12.30;;;8.07;;
13040;SDS011;6587;42.728;23.288;2024-01-25T01:09:00;14.00;;;7.80;;
13040;SDS011;6587;42.728;23.288;2024-01-25T01:11:27;10.63;;;6.27;;
13040;SDS011;6587;42.728;23.288;2024-01-25T01:13:54;10.80;;;6.27;;
13040;SDS011;6587;42.728;23.288;2024-01-25T01:16:22;13.80;;;7.57;;
13040;SDS011;6587;42.728;23.288;2024-01-25T01:18:49;14.20;;;7.53;;
13040;SDS011;6587;42.728;23.288;2024-01-25T01:21:16;9.07;;;5.83;;
13040;SDS011;6587;42.728;23.288;2024-01-25T01:23:43;10.77;;;5.27;;
13040;SDS011;6587;42.728;23.288;2024-01-25T01:26:09;8.63;;;5.00;;
13040;SDS011;6587;42.728;23.288;2024-01-25T01:28:37;6.57;;;4.90;;
13040;SDS011;6587;42.728;23.288;2024-01-25T01:31:04;7.67;;;5.03;;
13040;SDS011;6587;42.728;23.288;2024-01-25T01:33:32;7.23;;;4.40;;
13040;SDS011;6587;42.728;23.288;2024-01-25T01:35:59;7.60;;;4.07;;
13040;SDS011;6587;42.728;23.288;2024-01-25T01:38:26;9.03;;;4.57;;
13040;SDS011;6587;42.728;23.288;2024-01-25T01:40:53;9.23;;;4.73;;
13040;SDS011;6587;42.728;23.288;2024-01-25T01:43:20;9.37;;;4.97;;
13040;SDS011;6587;42.728;23.288;2024-01-25T01:45:48;7.73;;;4.70;;
13040;SDS011;6587;42.728;23.288;2024-01-25T01:48:15;10.77;;;5.17;;
13040;SDS011;6587;42.728;23.288;2024-01-25T01:50:44;8.23;;;4.90;;
13040;SDS011;6587;42.728;23.288;2024-01-25T01:53:11;7.33;;;4.93;;
13040;SDS011;6587;42.728;23.288;2024-01-25T01:55:39;8.43;;;5.20;;
13040;SDS011;6587;42.728;23.288;2024-01-25T01:58:06;7.97;;;4.57;;
13040;SDS011;6587;42.728;23.288;2024-01-25T02:00:34;6.07;;;4.43;;
13040;SDS011;6587;42.728;23.288;2024-01-25T02:03:01;10.73;;;5.43;;
13040;SDS011;6587;42.728;23.288;2024-01-25T02:05:28;9.33;;;4.73;;
13040;SDS011;6587;42.728;23.288;2024-01-25T02:07:56;8.63;;;4.53;;
13040;SDS011;6587;42.728;23.288;2024-01-25T02:10:24;7.03;;;4.50;;
13040;SDS011;6587;42.728;23.288;2024-01-25T02:12:50;6.50;;;4.97;;
13040;SDS011;6587;42.728;23.288;2024-01-25T02:15:17;10.53;;;5.30;;
13040;SDS011;6587;42.728;23.288;2024-01-25T02:17:45;8.77;;;4.97;;
13040;SDS011;6587;42.728;23.288;2024-01-25T02:20:12;7.40;;;4.13;;
13040;SDS011;6587;42.728;23.288;2024-01-25T02:22:40;7.73;;;4.10;;
13040;SDS011;6587;42.728;23.288;2024-01-25T02:25:07;7.47;;;4.00;;
13040;SDS011;6587;42.728;23.288;2024-01-25T02:27:34;6.73;;;4.20;;
13040;SDS011;6587;42.728;23.288;2024-01-25T02:30:04;9.40;;;4.53;;
13040;SDS011;6587;42.728;23.288;2024-01-25T02:32:32;8.83;;;4.40;;
13040;SDS011;6587;42.728;23.288;2024-01-25T02:34:59;7.63;;;4.37;;
13040;SDS011;6587;42.728;23.288;2024-01-25T02:37:26;8.73;;;5.50;;
13040;SDS011;6587;42.728;23.288;2024-01-25T02:39:54;9.87;;;5.97;;
13040;SDS011;6587;42.728;23.288;2024-01-25T02:42:21;9.30;;;4.80;;
13040;SDS011;6587;42.728;23.288;2024-01-25T02:44:48;6.37;;;4.50;;
13040;SDS011;6587;42.728;23.288;2024-01-25T02:47:15;6.77;;;4.30;;
13040;SDS011;6587;42.728;23.288;2024-01-25T02:49:42;7.87;;;5.03;;
13040;SDS011;6587;42.728;23.288;2024-01-25T02:52:09;8.53;;;4.77;;
13040;SDS011;6587;42.728;23.288;2024-01-25T02:54:35;5.57;;;3.10;;
13040;SDS011;6587;42.728;23.288;2024-01-25T02:57:04;9.03;;;3.80;;
13040;SDS011;6587;42.728;23.288;2024-01-25T02:59:31;6.57;;;4.00;;
13040;SDS011;6587;42.728;23.288;2024-01-25T03:01:58;9.13;;;3.90;;
13040;SDS011;6587;42.728;23.288;2024-01-25T03:04:25;9.00;;;4.20;;
13040;SDS011;6587;42.728;23.288;2024-01-25T03:06:52;7.73;;;3.67;;
13040;SDS011;6587;42.728;23.288;2024-01-25T03:09:19;4.77;;;3.43;;
13040;SDS011;6587;42.728;23.288;2024-01-25T03:11:49;7.03;;;3.57;;
13040;SDS011;6587;42.728;23.288;2024-01-25T03:14:17;10.27;;;4.50;;
13040;SDS011;6587;42.728;23.288;2024-01-25T03:16:44;6.80;;;3.97;;
13040;SDS011;6587;42.728;23.288;2024-01-25T03:19:11;5.30;;;3.50;;
13040;SDS011;6587;42.728;23.288;2024-01-25T03:21:37;2.30;;;1.83;;
13040;SDS011;6587;42.728;23.288;2024-01-25T03:24:05;3.10;;;1.80;;
13040;SDS011;6587;42.728;23.288;2024-01-25T03:26:32;7.93;;;3.40;;
13040;SDS011;6587;42.728;23.288;2024-01-25T03:28:59;7.87;;;4.07;;
13040;SDS011;6587;42.728;23.288;2024-01-25T03:31:27;7.20;;;4.13;;
13040;SDS011;6587;42.728;23.288;2024-01-25T03:33:54;10.87;;;4.50;;
13040;SDS011;6587;42.728;23.288;2024-01-25T03:36:21;10.30;;;4.33;;
13040;SDS011;6587;42.728;23.288;2024-01-25T03:38:48;7.13;;;3.80;;
13040;SDS011;6587;42.728;23.288;2024-01-25T03:41:14;9.83;;;3.97;;
13040;SDS011;6587;42.728;23.288;2024-01-25T03:43:41;7.17;;;3.70;;
13040;SDS011;6587;42.728;23.288;2024-01-25T03:46:10;7.37;;;4.07;;
13040;SDS011;6587;42.728;23.288;2024-01-25T03:48:38;6.63;;;3.53;;
13040;SDS011;6587;42.728;23.288;2024-01-25T03:51:05;7.20;;;4.00;;
13040;SDS011;6587;42.728;23.288;2024-01-25T03:53:32;6.00;;;3.90;;
13040;SDS011;6587;42.728;23.288;2024-01-25T03:55:59;10.03;;;5.33;;
13040;SDS011;6587;42.728;23.288;2024-01-25T03:58:26;7.97;;;5.07;;
13040;SDS011;6587;42.728;23.288;2024-01-25T04:00:53;9.77;;;4.67;;
13040;SDS011;6587;42.728;23.288;2024-01-25T04:03:20;7.03;;;3.83;;
13040;SDS011;6587;42.728;23.288;2024-01-25T04:05:48;6.80;;;3.93;;
13040;SDS011;6587;42.728;23.288;2024-01-25T04:08:15;4.07;;;3.03;;
13040;SDS011;6587;42.728;23.288;2024-01-25T04:10:42;8.27;;;3.40;;
13040;SDS011;6587;42.728;23.288;2024-01-25T04:13:09;5.70;;;3.40;;
13040;SDS011;6587;42.728;23.288;2024-01-25T04:15:36;4.27;;;2.73;;
13040;SDS011;6587;42.728;23.288;2024-01-25T04:18:03;5.00;;;2.87;;
13040;SDS011;6587;42.728;23.288;2024-01-25T04:20:30;5.90;;;2.53;;
13040;SDS011;6587;42.728;23.288;2024-01-25T04:23:00;6.73;;;3.40;;
13040;SDS011;6587;42.728;23.288;2024-01-25T04:25:27;7.23;;;3.10;;
13040;SDS011;6587;42.728;23.288;2024-01-25T04:27:54;3.93;;;2.60;;
13040;SDS011;6587;42.728;23.288;2024-01-25T04:30:21;5.10;;;2.80;;
13040;SDS011;6587;42.728;23.288;2024-01-25T04:32:48;5.60;;;3.00;;
13040;SDS011;6587;42.728;23.288;2024-01-25T04:35:15;4.73;;;3.17;;
13040;SDS011;6587;42.728;23.288;2024-01-25T04:37:42;4.70;;;2.73;;
13040;SDS011;6587;42.728;23.288;2024-01-25T04:40:10;4.67;;;2.60;;
13040;SDS011;6587;42.728;23.288;2024-01-25T04:42:37;4.37;;;2.70;;
13040;SDS011;6587;42.728;23.288;2024-01-25T04:45:05;3.97;;;2.70;;
13040;SDS011;6587;42.728;23.288;2024-01-25T04:47:32;2.57;;;2.37;;
13040;SDS011;6587;42.728;23.288;2024-01-25T04:49:59;3.23;;;2.50;;
13040;SDS011;6587;42.728;23.288;2024-01-25T04:52:26;5.60;;;2.83;;
13040;SDS011;6587;42.728;23.288;2024-01-25T04:54:53;3.07;;;2.30;;
13040;SDS011;6587;42.728;23.288;2024-01-25T04:57:21;4.57;;;2.30;;
13040;SDS011;6587;42.728;23.288;2024-01-25T04:59:48;8.47;;;2.77;;
13040;SDS011;6587;42.728;23.288;2024-01-25T05:02:15;4.23;;;2.53;;
13040;SDS011;6587;42.728;23.288;2024-01-25T05:04:42;7.03;;;2.83;;
13040;SDS011;6587;42.728;23.288;2024-01-25T05:07:08;5.00;;;3.40;;
13040;SDS011;6587;42.728;23.288;2024-01-25T05:09:35;4.13;;;2.60;;
13040;SDS011;6587;42.728;23.288;2024-01-25T05:12:02;3.27;;;2.60;;
13040;SDS011;6587;42.728;23.288;2024-01-25T05:14:31;4.70;;;2.77;;
13040;SDS011;6587;42.728;23.288;2024-01-25T05:16:58;4.13;;;2.93;;
13040;SDS011;6587;42.728;23.288;2024-01-25T05:19:25;4.13;;;2.70;;
13040;SDS011;6587;42.728;23.288;2024-01-25T05:21:51;4.90;;;3.00;;
13040;SDS011;6587;42.728;23.288;2024-01-25T05:24:18;4.80;;;3.07;;
13040;SDS011;6587;42.728;23.288;2024-01-25T05:26:45;3.90;;;2.47;;
13040;SDS011;6587;42.728;23.288;2024-01-25T05:29:12;7.77;;;4.73;;
13040;SDS011;6587;42.728;23.288;2024-01-25T05:31:40;5.83;;;3.40;;
13040;SDS011;6587;42.728;23.288;2024-01-25T05:34:07;3.73;;;2.37;;
13040;SDS011;6587;42.728;23.288;2024-01-25T05:36:34;4.20;;;2.30;;
13040;SDS011;6587;42.728;23.288;2024-01-25T05:39:01;6.73;;;2.40;;
13040;SDS011;6587;42.728;23.288;2024-01-25T05:41:31;3.60;;;2.40;;
13040;SDS011;6587;42.728;23.288;2024-01-25T05:43:59;4.20;;;2.47;;
13040;SDS011;6587;42.728;23.288;2024-01-25T05:46:25;4.53;;;2.60;;
13040;SDS011;6587;42.728;23.288;2024-01-25T05:48:54;4.07;;;2.83;;
13040;SDS011;6587;42.728;23.288;2024-01-25T05:51:20;6.53;;;3.60;;
13040;SDS011;6587;42.728;23.288;2024-01-25T05:53:47;6.70;;;3.33;;
13040;SDS011;6587;42.728;23.288;2024-01-25T05:56:14;4.37;;;3.00;;
13040;SDS011;6587;42.728;23.288;2024-01-25T05:58:41;5.43;;;3.17;;
13040;SDS011;6587;42.728;23.288;2024-01-25T06:01:08;4.50;;;3.13;;
13040;SDS011;6587;42.728;23.288;2024-01-25T06:03:35;7.33;;;3.40;;
13040;SDS011;6587;42.728;23.288;2024-01-25T06:06:03;8.37;;;4.87;;
13040;SDS011;6587;42.728;23.288;2024-01-25T06:08:33;5.43;;;3.07;;
13040;SDS011;6587;42.728;23.288;2024-01-25T06:11:00;6.20;;;4.53;;
13040;SDS011;6587;42.728;23.288;2024-01-25T06:13:27;8.17;;;5.17;;
13040;SDS011;6587;42.728;23.288;2024-01-25T06:15:53;8.53;;;5.10;;
13040;SDS011;6587;42.728;23.288;2024-01-25T06:18:20;6.13;;;4.63;;
13040;SDS011;6587;42.728;23.288;2024-01-25T06:20:47;5.53;;;3.73;;
13040;SDS011;6587;42.728;23.288;2024-01-25T06:23:16;5.20;;;3.43;;
13040;SDS011;6587;42.728;23.288;2024-01-25T06:25:43;9.20;;;4.17;;
13040;SDS011;6587;42.728;23.288;2024-01-25T06:28:10;10.00;;;4.50;;
13040;SDS011;6587;42.728;23.288;2024-01-25T06:30:37;7.30;;;4.97;;
13040;SDS011;6587;42.728;23.288;2024-01-25T06:33:04;4.97;;;3.90;;
13040;SDS011;6587;42.728;23.288;2024-01-25T06:35:31;6.87;;;3.47;;
13040;SDS011;6587;42.728;23.288;2024-01-25T06:37:58;6.60;;;4.03;;
13040;SDS011;6587;42.728;23.288;2024-01-25T06:40:26;4.33;;;3.53;;
13040;SDS011;6587;42.728;23.288;2024-01-25T06:42:53;7.13;;;3.87;;
13040;SDS011;6587;42.728;23.288;2024-01-25T06:45:19;4.53;;;3.20;;
13040;SDS011;6587;42.728;23.288;2024-01-25T06:47:46;4.67;;;3.13;;
13040;SDS011;6587;42.728;23.288;2024-01-25T06:50:13;9.03;;;4.00;;
13040;SDS011;6587;42.728;23.288;2024-01-25T06:52:40;8.53;;;3.20;;
13040;SDS011;6587;42.728;23.288;2024-01-25T06:55:07;8.07;;;4.43;;
13040;SDS011;6587;42.728;23.288;2024-01-25T06:57:36;7.30;;;4.03;;
13040;SDS011;6587;42.728;23.288;2024-01-25T07:00:05;7.23;;;3.90;;
13040;SDS011;6587;42.728;23.288;2024-01-25T07:02:33;8.33;;;4.43;;
13040;SDS011;6587;42.728;23.288;2024-01-25T07:05:00;6.53;;;4.80;;
13040;SDS011;6587;42.728;23.288;2024-01-25T07:07:28;9.97;;;5.50;;
13040;SDS011;6587;42.728;23.288;2024-01-25T07:09:57;10.40;;;4.83;;
13040;SDS011;6587;42.728;23.288;2024-01-25T07:12:24;7.57;;;5.00;;
13040;SDS011;6587;42.728;23.288;2024-01-25T07:14:52;8.73;;;4.37;;
13040;SDS011;6587;42.728;23.288;2024-01-25T07:17:19;10.50;;;5.03;;
13040;SDS011;6587;42.728;23.288;2024-01-25T07:19:46;8.27;;;4.67;;
13040;SDS011;6587;42.728;23.288;2024-01-25T07:22:13;6.10;;;4.27;;
13040;SDS011;6587;42.728;23.288;2024-01-25T07:24:40;7.93;;;4.07;;
13040;SDS011;6587;42.728;23.288;2024-01-25T07:27:07;9.77;;;5.50;;
13040;SDS011;6587;42.728;23.288;2024-01-25T07:29:35;8.57;;;5.10;;
13040;SDS011;6587;42.728;23.288;2024-01-25T07:32:03;6.50;;;3.10;;
13040;SDS011;6587;42.728;23.288;2024-01-25T07:34:31;8.20;;;3.10;;
13040;SDS011;6587;42.728;23.288;2024-01-25T07:36:57;6.13;;;2.57;;
13040;SDS011;6587;42.728;23.288;2024-01-25T07:39:24;6.20;;;2.97;;
13040;SDS011;6587;42.728;23.288;2024-01-25T07:41:51;5.13;;;2.73;;
13040;SDS011;6587;42.728;23.288;2024-01-25T07:44:18;5.50;;;3.30;;
13040;SDS011;6587;42.728;23.288;2024-01-25T07:46:45;9.80;;;4.00;;
13040;SDS011;6587;42.728;23.288;2024-01-25T07:49:13;4.67;;;3.07;;
13040;SDS011;6587;42.728;23.288;2024-01-25T07:51:40;7.77;;;3.40;;
13040;SDS011;6587;42.728;23.288;2024-01-25T07:54:07;8.23;;;3.47;;
13040;SDS011;6587;42.728;23.288;2024-01-25T07:56:35;5.40;;;3.20;;
13040;SDS011;6587;42.728;23.288;2024-01-25T07:59:02;7.07;;;3.20;;
13040;SDS011;6587;42.728;23.288;2024-01-25T08:01:29;7.57;;;3.43;;
13040;SDS011;6587;42.728;23.288;2024-01-25T08:03:56;7.17;;;3.77;;
13040;SDS011;6587;42.728;23.288;2024-01-25T08:06:24;8.47;;;4.73;;
13040;SDS011;6587;42.728;23.288;2024-01-25T08:08:52;7.80;;;4.00;;
13040;SDS011;6587;42.728;23.288;2024-01-25T08:11:19;6.23;;;4.40;;
13040;SDS011;6587;42.728;23.288;2024-01-25T08:13:46;7.47;;;4.13;;
13040;SDS011;6587;42.728;23.288;2024-01-25T08:16:14;10.07;;;4.80;;
13040;SDS011;6587;42.728;23.288;2024-01-25T08:18:44;8.73;;;4.60;;
13040;SDS011;6587;42.728;23.288;2024-01-25T08:21:11;11.93;;;5.57;;
13040;SDS011;6587;42.728;23.288;2024-01-25T08:23:40;13.60;;;5.67;;
13040;SDS011;6587;42.728;23.288;2024-01-25T08:26:07;13.20;;;5.57;;
13040;SDS011;6587;42.728;23.288;2024-01-25T08:28:34;9.43;;;5.10;;
13040;SDS011;6587;42.728;23.288;2024-01-25T08:31:01;7.57;;;4.00;;
13040;SDS011;6587;42.728;23.288;2024-01-25T08:33:28;10.37;;;4.67;;
13040;SDS011;6587;42.728;23.288;2024-01-25T08:35:55;10.57;;;5.63;;
13040;SDS011;6587;42.728;23.288;2024-01-25T08:38:23;8.83;;;4.17;;
13040;SDS011;6587;42.728;23.288;2024-01-25T08:40:51;11.20;;;5.17;;
13040;SDS011;6587;42.728;23.288;2024-01-25T08:43:18;8.33;;;4.53;;
13040;SDS011;6587;42.728;23.288;2024-01-25T08:45:45;7.03;;;3.90;;
13040;SDS011;6587;42.728;23.288;2024-01-25T08:48:12;7.93;;;3.77;;
13040;SDS011;6587;42.728;23.288;2024-01-25T08:50:39;9.13;;;4.33;;
13040;SDS011;6587;42.728;23.288;2024-01-25T08:53:06;5.60;;;3.33;;
13040;SDS011;6587;42.728;23.288;2024-01-25T08:55:33;3.73;;;2.70;;
13040;SDS011;6587;42.728;23.288;2024-01-25T08:58:01;7.07;;;4.13;;
13040;SDS011;6587;42.728;23.288;2024-01-25T09:00:28;8.17;;;4.20;;
13040;SDS011;6587;42.728;23.288;2024-01-25T09:02:55;4.93;;;3.17;;
13040;SDS011;6587;42.728;23.288;2024-01-25T09:05:22;7.80;;;4.50;;
13040;SDS011;6587;42.728;23.288;2024-01-25T09:07:50;13.10;;;5.93;;
13040;SDS011;6587;42.728;23.288;2024-01-25T09:10:17;6.37;;;4.90;;
13040;SDS011;6587;42.728;23.288;2024-01-25T09:12:44;8.70;;;4.67;;
13040;SDS011;6587;42.728;23.288;2024-01-25T09:15:12;11.70;;;5.00;;
13040;SDS011;6587;42.728;23.288;2024-01-25T09:17:39;11.20;;;4.83;;
13040;SDS011;6587;42.728;23.288;2024-01-25T09:22:51;7.53;;;4.40;;
13040;SDS011;6587;42.728;23.288;2024-01-25T09:25:20;7.60;;;4.40;;
13040;SDS011;6587;42.728;23.288;2024-01-25T09:27:47;7.87;;;3.27;;
13040;SDS011;6587;42.728;23.288;2024-01-25T09:30:15;7.60;;;4.00;;
13040;SDS011;6587;42.728;23.288;2024-01-25T09:32:42;7.13;;;3.80;;
13040;SDS011;6587;42.728;23.288;2024-01-25T09:35:09;9.23;;;4.70;;
13040;SDS011;6587;42.728;23.288;2024-01-25T09:37:36;5.43;;;3.30;;
13040;SDS011;6587;42.728;23.288;2024-01-25T09:40:03;9.90;;;4.10;;
13040;SDS011;6587;42.728;23.288;2024-01-25T09:42:31;6.97;;;3.53;;
13040;SDS011;6587;42.728;23.288;2024-01-25T09:44:58;4.97;;;3.00;;
13040;SDS011;6587;42.728;23.288;2024-01-25T09:47:26;7.30;;;3.13;;
13040;SDS011;6587;42.728;23.288;2024-01-25T09:49:53;5.83;;;3.50;;
13040;SDS011;6587;42.728;23.288;2024-01-25T09:52:20;9.17;;;4.13;;
13040;SDS011;6587;42.728;23.288;2024-01-25T09:54:51;8.00;;;3.40;;
13040;SDS011;6587;42.728;23.288;2024-01-25T09:57:21;7.77;;;3.50;;
13040;SDS011;6587;42.728;23.288;2024-01-25T09:59:52;10.27;;;4.97;;
13040;SDS011;6587;42.728;23.288;2024-01-25T10:02:20;8.50;;;4.37;;
13040;SDS011;6587;42.728;23.288;2024-01-25T10:04:49;10.57;;;5.10;;
13040;SDS011;6587;42.728;23.288;2024-01-25T10:07:17;10.13;;;4.33;;
13040;SDS011;6587;42.728;23.288;2024-01-25T10:10:02;8.90;;;4.20;;
13040;SDS011;6587;42.728;23.288;2024-01-25T10:12:30;9.53;;;4.57;;
13040;SDS011;6587;42.728;23.288;2024-01-25T10:14:57;8.00;;;3.90;;
13040;SDS011;6587;42.728;23.288;2024-01-25T10:17:24;13.73;;;5.73;;
13040;SDS011;6587;42.728;23.288;2024-01-25T10:19:52;9.07;;;4.27;;
13040;SDS011;6587;42.728;23.288;2024-01-25T10:22:19;9.00;;;3.80;;
13040;SDS011;6587;42.728;23.288;2024-01-25T10:24:46;7.40;;;3.57;;
13040;SDS011;6587;42.728;23.288;2024-01-25T10:27:15;6.10;;;3.70;;
13040;SDS011;6587;42.728;23.288;2024-01-25T10:29:42;10.53;;;5.60;;
13040;SDS011;6587;42.728;23.288;2024-01-25T10:32:09;13.37;;;6.90;;
13040;SDS011;6587;42.728;23.288;2024-01-25T10:34:36;12.10;;;8.87;;
13040;SDS011;6587;42.728;23.288;2024-01-25T10:37:05;9.03;;;5.53;;
13040;SDS011;6587;42.728;23.288;2024-01-25T10:39:33;9.00;;;5.03;;
13040;SDS011;6587;42.728;23.288;2024-01-25T10:42:00;9.50;;;4.10;;
13040;SDS011;6587;42.728;23.288;2024-01-25T10:44:27;11.50;;;4.93;;
13040;SDS011;6587;42.728;23.288;2024-01-25T10:46:54;7.83;;;4.30;;
13040;SDS011;6587;42.728;23.288;2024-01-25T10:49:22;8.77;;;4.07;;
13040;SDS011;6587;42.728;23.288;2024-01-25T10:51:51;5.67;;;3.70;;
13040;SDS011;6587;42.728;23.288;2024-01-25T10:54:20;6.90;;;4.20;;
13040;SDS011;6587;42.728;23.288;2024-01-25T10:56:48;10.00;;;4.10;;
13040;SDS011;6587;42.728;23.288;2024-01-25T10:59:15;5.33;;;3.30;;
13040;SDS011;6587;42.728;23.288;2024-01-25T11:01:43;6.23;;;3.47;;
13040;SDS011;6587;42.728;23.288;2024-01-25T11:04:15;10.10;;;4.00;;
13040;SDS011;6587;42.728;23.288;2024-01-25T11:06:43;6.63;;;3.40;;
13040;SDS011;6587;42.728;23.288;2024-01-25T11:09:15;8.10;;;2.77;;
13040;SDS011;6587;42.728;23.288;2024-01-25T11:11:46;8.50;;;3.80;;
13040;SDS011;6587;42.728;23.288;2024-01-25T11:14:14;7.27;;;3.63;;
13040;SDS011;6587;42.728;23.288;2024-01-25T11:16:42;7.83;;;3.20;;
13040;SDS011;6587;42.728;23.288;2024-01-25T11:19:21;10.53;;;3.57;;
13040;SDS011;6587;42.728;23.288;2024-01-25T11:21:49;6.07;;;3.23;;
13040;SDS011;6587;42.728;23.288;2024-01-25T11:24:17;6.83;;;3.07;;
13040;SDS011;6587;42.728;23.288;2024-01-25T11:26:48;4.93;;;2.80;;
13040;SDS011;6587;42.728;23.288;2024-01-25T11:29:16;5.80;;;2.93;;
13040;SDS011;6587;42.728;23.288;2024-01-25T11:31:43;5.07;;;2.60;;
13040;SDS011;6587;42.728;23.288;2024-01-25T11:34:11;7.10;;;3.00;;
13040;SDS011;6587;42.728;23.288;2024-01-25T11:36:38;5.77;;;2.60;;
13040;SDS011;6587;42.728;23.288;2024-01-25T11:39:05;5.47;;;2.97;;
13040;SDS011;6587;42.728;23.288;2024-01-25T11:41:32;7.00;;;3.13;;
13040;SDS011;6587;42.728;23.288;2024-01-25T11:44:02;5.23;;;2.60;;
13040;SDS011;6587;42.728;23.288;2024-01-25T11:46:29;8.73;;;3.67;;
13040;SDS011;6587;42.728;23.288;2024-01-25T11:48:57;7.73;;;2.93;;
13040;SDS011;6587;42.728;23.288;2024-01-25T11:51:25;7.37;;;3.63;;
13040;SDS011;6587;42.728;23.288;2024-01-25T11:53:51;5.57;;;2.70;;
13040;SDS011;6587;42.728;23.288;2024-01-25T11:56:19;6.33;;;3.10;;
13040;SDS011;6587;42.728;23.288;2024-01-25T11:58:49;5.87;;;2.87;;
13040;SDS011;6587;42.728;23.288;2024-01-25T12:01:18;6.43;;;2.97;;
13040;SDS011;6587;42.728;23.288;2024-01-25T12:03:46;6.03;;;3.03;;
13040;SDS011;6587;42.728;23.288;2024-01-25T12:06:13;6.93;;;2.63;;
13040;SDS011;6587;42.728;23.288;2024-01-25T12:08:40;6.67;;;3.03;;
13040;SDS011;6587;42.728;23.288;2024-01-25T12:11:07;7.07;;;3.10;;
13040;SDS011;6587;42.728;23.288;2024-01-25T12:13:35;6.83;;;3.60;;
13040;SDS011;6587;42.728;23.288;2024-01-25T12:16:05;10.33;;;4.03;;
13040;SDS011;6587;42.728;23.288;2024-01-25T12:18:34;9.63;;;4.83;;
13040;SDS011;6587;42.728;23.288;2024-01-25T12:21:02;12.23;;;5.30;;
13040;SDS011;6587;42.728;23.288;2024-01-25T12:23:30;8.57;;;4.10;;
13040;SDS011;6587;42.728;23.288;2024-01-25T12:25:59;7.47;;;3.60;;
13040;SDS011;6587;42.728;23.288;2024-01-25T12:28:27;4.77;;;2.47;;
13040;SDS011;6587;42.728;23.288;2024-01-25T12:30:54;7.70;;;4.00;;
13040;SDS011;6587;42.728;23.288;2024-01-25T12:33:21;10.90;;;4.03;;
13040;SDS011;6587;42.728;23.288;2024-01-25T12:35:49;9.17;;;3.53;;
13040;SDS011;6587;42.728;23.288;2024-01-25T12:38:16;7.80;;;3.33;;
13040;SDS011;6587;42.728;23.288;2024-01-25T12:40:43;6.33;;;2.80;;
13040;SDS011;6587;42.728;23.288;2024-01-25T12:43:12;7.30;;;2.93;;
13040;SDS011;6587;42.728;23.288;2024-01-25T12:45:40;5.80;;;3.00;;
13040;SDS011;6587;42.728;23.288;2024-01-25T12:48:07;6.87;;;3.40;;
13040;SDS011;6587;42.728;23.288;2024-01-25T12:50:34;5.37;;;2.53;;
13040;SDS011;6587;42.728;23.288;2024-01-25T12:53:03;6.87;;;3.30;;
13040;SDS011;6587;42.728;23.288;2024-01-25T12:55:30;11.33;;;4.13;;
13040;SDS011;6587;42.728;23.288;2024-01-25T12:57:58;9.90;;;3.93;;
13040;SDS011;6587;42.728;23.288;2024-01-25T13:00:25;6.93;;;2.90;;
13040;SDS011;6587;42.728;23.288;2024-01-25T13:02:52;5.33;;;3.10;;
13040;SDS011;6587;42.728;23.288;2024-01-25T13:05:20;8.50;;;2.70;;
13040;SDS011;6587;42.728;23.288;2024-01-25T13:07:47;7.77;;;3.33;;
13040;SDS011;6587;42.728;23.288;2024-01-25T13:10:16;5.83;;;2.73;;
13040;SDS011;6587;42.728;23.288;2024-01-25T13:12:42;12.03;;;3.13;;
13040;SDS011;6587;42.728;23.288;2024-01-25T13:15:09;9.13;;;2.53;;
13040;SDS011;6587;42.728;23.288;2024-01-25T13:17:36;7.43;;;3.00;;
13040;SDS011;6587;42.728;23.288;2024-01-25T13:20:04;4.97;;;2.70;;
13040;SDS011;6587;42.728;23.288;2024-01-25T13:22:32;4.73;;;2.77;;
13040;SDS011;6587;42.728;23.288;2024-01-25T13:24:59;5.73;;;2.80;;
13040;SDS011;6587;42.728;23.288;2024-01-25T13:27:27;7.50;;;2.63;;
13040;SDS011;6587;42.728;23.288;2024-01-25T13:29:54;13.23;;;3.07;;
13040;SDS011;6587;42.728;23.288;2024-01-25T13:32:22;6.13;;;2.67;;
13040;SDS011;6587;42.728;23.288;2024-01-25T13:34:49;8.87;;;3.37;;
13040;SDS011;6587;42.728;23.288;2024-01-25T13:37:16;6.30;;;2.97;;
13040;SDS011;6587;42.728;23.288;2024-01-25T13:39:43;8.37;;;2.80;;
13040;SDS011;6587;42.728;23.288;2024-01-25T13:42:10;7.87;;;2.80;;
13040;SDS011;6587;42.728;23.288;2024-01-25T13:44:38;5.70;;;3.03;;
13040;SDS011;6587;42.728;23.288;2024-01-25T13:47:05;5.93;;;3.00;;
13040;SDS011;6587;42.728;23.288;2024-01-25T13:49:32;7.73;;;3.53;;
13040;SDS011;6587;42.728;23.288;2024-01-25T13:52:00;9.40;;;3.37;;
13040;SDS011;6587;42.728;23.288;2024-01-25T13:54:28;8.87;;;3.57;;
13040;SDS011;6587;42.728;23.288;2024-01-25T13:56:55;9.53;;;3.17;;
13040;SDS011;6587;42.728;23.288;2024-01-25T13:59:22;8.57;;;3.07;;
13040;SDS011;6587;42.728;23.288;2024-01-25T14:01:52;8.23;;;3.27;;
13040;SDS011;6587;42.728;23.288;2024-01-25T14:04:19;8.30;;;2.90;;
13040;SDS011;6587;42.728;23.288;2024-01-25T14:06:45;8.20;;;3.00;;
13040;SDS011;6587;42.728;23.288;2024-01-25T14:09:12;6.07;;;3.00;;
13040;SDS011;6587;42.728;23.288;2024-01-25T14:11:39;7.20;;;2.50;;
13040;SDS011;6587;42.728;23.288;2024-01-25T14:14:06;6.90;;;2.80;;
13040;SDS011;6587;42.728;23.288;2024-01-25T14:16:33;6.73;;;3.13;;
13040;SDS011;6587;42.728;23.288;2024-01-25T14:19:02;6.67;;;3.07;;
13040;SDS011;6587;42.728;23.288;2024-01-25T14:21:29;6.30;;;3.23;;
13040;SDS011;6587;42.728;23.288;2024-01-25T14:23:56;11.60;;;3.83;;
13040;SDS011;6587;42.728;23.288;2024-01-25T14:26:23;7.87;;;3.27;;
13040;SDS011;6587;42.728;23.288;2024-01-25T14:28:50;6.83;;;2.90;;
13040;SDS011;6587;42.728;23.288;2024-01-25T14:31:17;7.70;;;3.43;;
13040;SDS011;6587;42.728;23.288;2024-01-25T14:33:44;10.33;;;4.17;;
13040;SDS011;6587;42.728;23.288;2024-01-25T14:36:14;11.30;;;3.17;;
13040;SDS011;6587;42.728;23.288;2024-01-25T14:38:41;8.67;;;3.43;;
13040;SDS011;6587;42.728;23.288;2024-01-25T14:41:08;7.33;;;2.97;;
13040;SDS011;6587;42.728;23.288;2024-01-25T14:43:36;10.60;;;3.97;;
13040;SDS011;6587;42.728;23.288;2024-01-25T14:46:04;4.87;;;2.57;;